createdAt,value
2023-12-17T00:00:47.524Z,66.41
2023-12-17T00:03:19.128Z,66.58
2023-12-17T00:05:48.874Z,66.49
2023-12-17T00:08:20.862Z,66.61
2023-12-17T00:10:48.434Z,66.49
2023-12-17T00:13:16.009Z,66.44
2023-12-17T00:15:43.559Z,66.69
2023-12-17T00:18:13.022Z,66.43
2023-12-17T00:20:41.020Z,66.45
2023-12-17T00:23:08.484Z,66.68
2023-12-17T00:25:35.937Z,66.72
2023-12-17T00:28:03.386Z,66.65
2023-12-17T00:30:31.161Z,66.72
2023-12-17T00:32:58.964Z,66.74
2023-12-17T00:35:27.773Z,66.90
2023-12-17T00:37:55.249Z,67.26
2023-12-17T00:40:22.890Z,66.79
2023-12-17T00:42:50.314Z,66.96
2023-12-17T00:45:17.851Z,67.05
2023-12-17T00:47:45.396Z,66.89
2023-12-17T00:50:12.884Z,66.99
2023-12-17T00:52:41.642Z,66.95
2023-12-17T00:55:09.719Z,66.92
2023-12-17T00:57:37.418Z,66.98
2023-12-17T01:00:05.658Z,66.82
2023-12-17T01:02:33.155Z,66.96
2023-12-17T01:05:00.603Z,66.90
2023-12-17T01:07:28.046Z,66.75
2023-12-17T01:09:56.798Z,66.83
2023-12-17T01:12:24.354Z,66.91
2023-12-17T01:14:51.890Z,66.94
2023-12-17T01:17:19.371Z,66.79
2023-12-17T01:19:46.871Z,66.93
2023-12-17T01:22:14.437Z,66.93
2023-12-17T01:24:42.530Z,67.08
2023-12-17T01:27:11.320Z,67.01
2023-12-17T01:29:38.770Z,66.94
2023-12-17T01:32:07.218Z,66.97
2023-12-17T01:34:35.029Z,66.92
2023-12-17T01:37:02.573Z,66.82
2023-12-17T01:39:30.078Z,67.14
2023-12-17T01:41:57.569Z,66.91
2023-12-17T01:44:26.337Z,66.82
2023-12-17T01:46:53.750Z,66.69
2023-12-17T01:49:21.272Z,67.04
2023-12-17T01:51:48.754Z,66.77
2023-12-17T01:54:16.226Z,66.62
2023-12-17T01:56:43.684Z,66.89
2023-12-17T01:59:11.163Z,66.91
2023-12-17T02:01:40.303Z,66.99
2023-12-17T02:04:08.036Z,66.88
2023-12-17T02:06:35.719Z,66.85
2023-12-17T02:09:03.335Z,66.78
2023-12-17T02:11:30.858Z,66.79
2023-12-17T02:13:58.289Z,66.79
2023-12-17T02:16:25.704Z,66.89
2023-12-17T02:18:54.586Z,66.80
2023-12-17T02:21:22.209Z,66.88
2023-12-17T02:23:51.002Z,66.94
2023-12-17T02:26:18.830Z,66.96
2023-12-17T02:28:47.126Z,66.84
2023-12-17T02:31:14.645Z,66.80
2023-12-17T02:33:42.187Z,66.97
2023-12-17T02:36:09.955Z,66.62
2023-12-17T02:38:37.433Z,66.96
2023-12-17T02:41:06.318Z,66.91
2023-12-17T02:43:33.778Z,66.98
2023-12-17T02:46:01.259Z,66.90
2023-12-17T02:48:28.947Z,67.09
2023-12-17T02:50:56.524Z,67.21
2023-12-17T02:53:24.025Z,67.19
2023-12-17T02:55:51.460Z,67.06
2023-12-17T02:58:20.220Z,66.96
2023-12-17T03:00:47.650Z,66.96
2023-12-17T03:03:15.229Z,67.24
2023-12-17T03:05:42.850Z,67.02
2023-12-17T03:08:10.386Z,67.34
2023-12-17T03:10:39.473Z,67.38
2023-12-17T03:13:08.523Z,67.20
2023-12-17T03:15:37.261Z,67.24
2023-12-17T03:18:04.971Z,67.01
2023-12-17T03:20:32.873Z,67.01
2023-12-17T03:23:00.428Z,67.02
2023-12-17T03:25:28.001Z,66.89
2023-12-17T03:27:55.530Z,67.17
2023-12-17T03:30:24.208Z,67.29
2023-12-17T03:32:53.091Z,67.23
2023-12-17T03:35:20.582Z,67.13
2023-12-17T03:37:47.997Z,66.99
2023-12-17T03:40:15.771Z,67.22
2023-12-17T03:42:43.231Z,67.03
2023-12-17T03:45:10.973Z,66.79
2023-12-17T03:47:41.833Z,67.29
2023-12-17T03:50:11.259Z,67.20
2023-12-17T03:52:38.672Z,66.94
2023-12-17T03:55:06.726Z,67.24
2023-12-17T03:57:34.134Z,67.22
2023-12-17T04:00:02.817Z,67.23
2023-12-17T04:02:30.283Z,67.09
2023-12-17T04:04:57.795Z,67.24
2023-12-17T04:07:27.430Z,67.21
2023-12-17T04:09:54.871Z,67.19
2023-12-17T04:12:22.350Z,67.31
2023-12-17T04:14:49.836Z,67.06
2023-12-17T04:17:17.276Z,67.11
2023-12-17T04:19:44.750Z,67.08
2023-12-17T04:22:12.233Z,67.06
2023-12-17T04:24:40.948Z,67.18
2023-12-17T04:27:08.443Z,67.17
2023-12-17T04:29:36.118Z,67.26
2023-12-17T04:32:03.593Z,67.31
2023-12-17T04:34:31.102Z,67.57
2023-12-17T04:37:00.787Z,67.35
2023-12-17T04:39:28.345Z,67.38
2023-12-17T04:41:57.182Z,67.19
2023-12-17T04:44:24.617Z,67.26
2023-12-17T04:46:52.038Z,67.28
2023-12-17T04:49:19.953Z,67.22
2023-12-17T04:51:47.499Z,67.46
2023-12-17T04:54:16.152Z,67.25
2023-12-17T04:56:43.649Z,67.11
2023-12-17T04:59:12.398Z,67.27
2023-12-17T05:01:39.821Z,67.30
2023-12-17T05:04:07.312Z,67.35
2023-12-17T05:06:34.844Z,67.36
2023-12-17T05:09:02.287Z,67.26
2023-12-17T05:11:29.702Z,67.22
2023-12-17T05:13:57.134Z,67.18
2023-12-17T05:16:25.845Z,67.32
2023-12-17T05:18:53.463Z,67.25
2023-12-17T05:21:21.749Z,67.37
2023-12-17T05:23:49.332Z,67.10
2023-12-17T05:26:16.763Z,67.20
2023-12-17T05:28:44.195Z,67.21
2023-12-17T05:31:11.697Z,67.14
2023-12-17T05:33:40.591Z,67.09
2023-12-17T05:36:08.784Z,67.11
2023-12-17T05:38:36.236Z,67.08
2023-12-17T05:41:03.707Z,67.20
2023-12-17T05:43:31.355Z,67.44
2023-12-17T05:46:05.744Z,67.28
2023-12-17T05:48:33.981Z,67.31
2023-12-17T05:51:02.872Z,67.11
2023-12-17T05:53:34.299Z,67.35
2023-12-17T05:56:09.205Z,67.09
2023-12-17T05:58:36.665Z,67.42
2023-12-17T06:01:04.241Z,67.02
2023-12-17T06:03:32.247Z,67.03
2023-12-17T06:05:59.882Z,66.95
2023-12-17T06:08:28.660Z,67.11
2023-12-17T06:10:56.086Z,67.14
2023-12-17T06:13:23.518Z,67.14
2023-12-17T06:15:50.985Z,67.21
2023-12-17T06:18:18.575Z,67.32
2023-12-17T06:20:46.487Z,67.18
2023-12-17T06:23:15.530Z,67.47
2023-12-17T06:25:44.413Z,67.39
2023-12-17T06:28:11.841Z,67.40
2023-12-17T06:30:39.897Z,67.46
2023-12-17T06:33:07.486Z,67.27
2023-12-17T06:35:34.959Z,67.41
2023-12-17T06:38:02.428Z,67.37
2023-12-17T06:40:29.846Z,67.31
2023-12-17T06:42:58.983Z,67.36
2023-12-17T06:45:26.476Z,67.49
2023-12-17T06:47:54.047Z,67.30
2023-12-17T06:50:21.546Z,67.37
2023-12-17T06:52:48.971Z,67.18
2023-12-17T06:55:16.512Z,67.01
2023-12-17T06:57:48.381Z,67.22
2023-12-17T07:00:18.296Z,67.47
2023-12-17T07:02:45.913Z,67.38
2023-12-17T07:05:13.465Z,67.51
2023-12-17T07:07:41.208Z,67.46
2023-12-17T07:10:12.099Z,67.36
2023-12-17T07:12:39.517Z,67.32
2023-12-17T07:15:08.353Z,67.32
2023-12-17T07:17:37.311Z,67.31
2023-12-17T07:20:05.279Z,67.33
2023-12-17T07:22:32.711Z,67.52
2023-12-17T07:25:00.236Z,67.34
2023-12-17T07:27:28.237Z,67.55
2023-12-17T07:29:55.769Z,67.47
2023-12-17T07:32:23.242Z,67.41
2023-12-17T07:34:52.020Z,67.45
2023-12-17T07:37:19.462Z,67.53
2023-12-17T07:39:46.900Z,67.41
2023-12-17T07:42:14.564Z,67.46
2023-12-17T07:44:42.026Z,67.46
2023-12-17T07:47:11.999Z,67.20
2023-12-17T07:49:39.509Z,67.42
2023-12-17T07:52:08.348Z,67.36
2023-12-17T07:54:35.803Z,67.22
2023-12-17T07:57:03.286Z,67.20
2023-12-17T07:59:30.735Z,67.25
2023-12-17T08:01:58.178Z,67.33
2023-12-17T08:04:25.769Z,67.35
2023-12-17T08:06:53.353Z,67.28
2023-12-17T08:09:22.271Z,66.97
2023-12-17T08:11:49.798Z,67.06
2023-12-17T08:14:17.312Z,67.11
2023-12-17T08:16:45.764Z,67.26
2023-12-17T08:19:13.326Z,67.33
2023-12-17T08:21:40.886Z,67.19
2023-12-17T08:24:08.530Z,67.14
2023-12-17T08:26:37.280Z,67.23
2023-12-17T08:29:04.774Z,67.13
2023-12-17T08:31:32.267Z,67.28
2023-12-17T08:33:59.864Z,67.40
2023-12-17T08:36:29.131Z,67.23
2023-12-17T08:38:56.696Z,67.13
2023-12-17T08:41:24.175Z,67.23
2023-12-17T08:43:52.952Z,67.25
2023-12-17T08:46:20.407Z,67.38
2023-12-17T08:48:48.013Z,67.17
2023-12-17T08:51:15.575Z,67.11
2023-12-17T08:53:43.461Z,67.31
2023-12-17T08:56:11.278Z,67.29
2023-12-17T08:58:38.735Z,66.96
2023-12-17T09:01:07.955Z,67.07
2023-12-17T09:03:35.534Z,66.63
2023-12-17T09:06:03.124Z,67.25
2023-12-17T09:08:30.761Z,67.29
2023-12-17T09:10:58.225Z,67.31
2023-12-17T09:13:25.792Z,67.08
2023-12-17T09:15:53.301Z,67.01
2023-12-17T09:18:22.316Z,67.18
2023-12-17T09:20:49.905Z,67.14
2023-12-17T09:23:17.501Z,67.30
2023-12-17T09:25:44.956Z,67.07
2023-12-17T09:28:12.409Z,67.31
2023-12-17T09:30:39.914Z,67.28
2023-12-17T09:33:07.703Z,67.31
2023-12-17T09:35:37.938Z,67.14
2023-12-17T09:38:09.906Z,67.17
2023-12-17T09:40:39.924Z,67.17
2023-12-17T09:43:08.501Z,67.19
2023-12-17T09:45:36.100Z,67.20
2023-12-17T09:48:03.759Z,67.23
2023-12-17T09:50:31.290Z,67.28
2023-12-17T09:53:00.073Z,67.16
2023-12-17T09:55:27.622Z,67.34
2023-12-17T09:57:55.099Z,67.38
2023-12-17T10:00:22.646Z,67.33
2023-12-17T10:02:50.169Z,67.19
2023-12-17T10:05:17.806Z,67.19
2023-12-17T10:07:45.745Z,67.18
2023-12-17T10:10:16.535Z,67.11
2023-12-17T10:12:47.225Z,67.08
2023-12-17T10:15:14.856Z,66.92
2023-12-17T10:17:42.889Z,66.95
2023-12-17T10:20:11.335Z,66.75
2023-12-17T10:22:38.997Z,66.96
2023-12-17T10:25:07.348Z,67.01
2023-12-17T10:27:36.181Z,67.08
2023-12-17T10:30:03.755Z,66.99
2023-12-17T10:32:31.329Z,67.07
2023-12-17T10:34:58.882Z,67.21
2023-12-17T10:37:26.408Z,67.09
2023-12-17T10:39:55.427Z,67.15
2023-12-17T10:42:22.911Z,67.06
2023-12-17T10:44:51.939Z,66.76
2023-12-17T10:47:21.164Z,66.91
2023-12-17T10:49:49.150Z,66.52
2023-12-17T10:52:16.785Z,66.59
2023-12-17T10:54:44.517Z,66.65
2023-12-17T10:57:13.474Z,66.56
2023-12-17T10:59:41.739Z,67.12
2023-12-17T11:02:11.269Z,66.83
2023-12-17T11:04:45.383Z,66.83
2023-12-17T11:07:22.486Z,67.08
2023-12-17T11:09:55.226Z,66.92
2023-12-17T11:12:22.789Z,66.96
2023-12-17T11:14:50.321Z,67.21
2023-12-17T11:17:19.346Z,67.06
2023-12-17T11:19:57.246Z,66.88
2023-12-17T11:22:24.840Z,66.85
2023-12-17T11:24:52.367Z,66.95
2023-12-17T11:27:23.199Z,66.97
2023-12-17T11:29:50.729Z,66.96
2023-12-17T11:32:20.582Z,66.90
2023-12-17T11:34:50.568Z,66.83
2023-12-17T11:37:18.296Z,67.04
2023-12-17T11:39:46.408Z,66.93
2023-12-17T11:42:14.412Z,67.18
2023-12-17T11:44:45.508Z,67.24
2023-12-17T11:47:13.595Z,66.99
2023-12-17T11:49:43.714Z,66.99
2023-12-17T11:52:11.473Z,67.06
2023-12-17T11:54:39.111Z,67.18
2023-12-17T11:57:18.106Z,67.04
2023-12-17T11:59:45.689Z,67.20
2023-12-17T12:02:13.218Z,67.07
2023-12-17T12:04:42.553Z,66.94
2023-12-17T12:07:10.082Z,66.88
2023-12-17T12:09:37.646Z,67.06
2023-12-17T12:12:16.326Z,66.78
2023-12-17T12:14:44.058Z,66.95
2023-12-17T12:17:38.436Z,66.77
2023-12-17T12:20:09.252Z,66.67
2023-12-17T12:22:36.845Z,66.70
2023-12-17T12:25:04.481Z,66.82
2023-12-17T12:27:31.941Z,66.75
2023-12-17T12:29:59.473Z,66.78
2023-12-17T12:32:28.289Z,66.58
2023-12-17T12:34:56.328Z,66.50
2023-12-17T12:37:37.705Z,66.39
2023-12-17T12:40:08.821Z,66.34
2023-12-17T12:42:38.176Z,66.32
2023-12-17T12:45:06.829Z,65.76
2023-12-17T12:47:34.847Z,65.81
2023-12-17T12:50:02.435Z,65.89
2023-12-17T12:52:29.878Z,66.10
2023-12-17T12:54:58.720Z,66.26
2023-12-17T12:57:26.425Z,66.29
2023-12-17T12:59:53.913Z,66.05
2023-12-17T13:02:21.375Z,66.23
2023-12-17T13:04:50.108Z,66.21
2023-12-17T13:07:17.657Z,66.13
2023-12-17T13:09:47.740Z,65.99
2023-12-17T13:12:18.678Z,65.86
2023-12-17T13:14:46.266Z,65.80
2023-12-17T13:17:14.460Z,65.80
2023-12-17T13:19:42.041Z,65.71
2023-12-17T13:22:11.201Z,65.62
2023-12-17T13:24:38.798Z,65.48
2023-12-17T13:27:06.602Z,65.53
2023-12-17T13:29:35.455Z,65.40
2023-12-17T13:32:02.897Z,65.36
2023-12-17T13:34:30.375Z,65.34
2023-12-17T13:36:57.802Z,64.73
2023-12-17T13:39:25.849Z,64.80
2023-12-17T13:41:59.393Z,64.72
2023-12-17T13:44:29.408Z,64.72
2023-12-17T13:46:58.134Z,64.72
2023-12-17T13:49:26.260Z,64.49
2023-12-17T13:51:53.855Z,64.49
2023-12-17T13:54:21.618Z,64.45
2023-12-17T13:56:49.225Z,64.43
2023-12-17T13:59:16.781Z,64.55
2023-12-17T14:01:44.226Z,64.57
2023-12-17T14:04:13.352Z,64.54
2023-12-17T14:06:40.891Z,64.56
2023-12-17T14:09:08.423Z,64.46
2023-12-17T14:11:39.369Z,64.68
2023-12-17T14:14:07.539Z,64.61
2023-12-17T14:16:35.252Z,64.79
2023-12-17T14:19:02.775Z,64.90
2023-12-17T14:21:33.467Z,65.08
2023-12-17T14:24:01.811Z,65.13
2023-12-17T14:26:29.300Z,65.20
2023-12-17T14:28:56.713Z,65.02
2023-12-17T14:31:29.275Z,65.18
2023-12-17T14:33:56.946Z,65.37
2023-12-17T14:36:24.925Z,65.43
2023-12-17T14:38:54.260Z,65.45
2023-12-17T14:41:22.121Z,65.41
2023-12-17T14:43:49.683Z,65.43
2023-12-17T14:46:17.149Z,65.48
2023-12-17T14:48:44.805Z,65.39
2023-12-17T14:51:12.939Z,65.65
2023-12-17T14:53:46.421Z,65.71
2023-12-17T14:56:21.720Z,65.50
2023-12-17T14:58:49.669Z,65.83
2023-12-17T15:01:24.828Z,65.57
2023-12-17T15:03:56.366Z,65.71
2023-12-17T15:06:24.276Z,65.72
2023-12-17T15:08:52.285Z,65.65
2023-12-17T15:11:20.018Z,65.66
2023-12-17T15:13:48.729Z,65.67
2023-12-17T15:16:17.124Z,65.79
2023-12-17T15:18:44.871Z,65.84
2023-12-17T15:21:15.859Z,65.82
2023-12-17T15:23:43.377Z,65.80
2023-12-17T15:26:10.789Z,65.84
2023-12-17T15:28:38.653Z,65.83
2023-12-17T15:31:07.523Z,65.42
2023-12-17T15:33:35.085Z,65.79
2023-12-17T15:36:02.556Z,65.71
2023-12-17T15:38:30.717Z,65.79
2023-12-17T15:40:58.128Z,65.71
2023-12-17T15:43:25.535Z,65.64
2023-12-17T15:45:53.070Z,65.83
2023-12-17T15:48:22.013Z,65.75
2023-12-17T15:50:49.768Z,65.89
2023-12-17T15:53:17.207Z,65.89
2023-12-17T15:55:44.707Z,65.85
2023-12-17T15:58:12.161Z,66.04
2023-12-17T16:00:39.710Z,66.00
2023-12-17T16:03:07.327Z,65.85
2023-12-17T16:05:36.544Z,65.89
2023-12-17T16:08:04.439Z,66.04
2023-12-17T16:10:31.863Z,66.06
2023-12-17T16:12:59.539Z,65.99
2023-12-17T16:15:28.795Z,66.06
2023-12-17T16:17:56.472Z,66.07
2023-12-17T16:20:25.360Z,66.18
2023-12-17T16:22:54.091Z,66.32
2023-12-17T16:25:21.651Z,66.15
2023-12-17T16:27:49.253Z,66.17
2023-12-17T16:30:16.979Z,66.13
2023-12-17T16:32:44.854Z,66.17
2023-12-17T16:35:12.423Z,66.33
2023-12-17T16:37:42.772Z,66.01
2023-12-17T16:40:12.078Z,66.19
2023-12-17T16:42:39.628Z,66.09
2023-12-17T16:45:08.479Z,66.11
2023-12-17T16:47:35.956Z,66.34
2023-12-17T16:50:04.174Z,66.40
2023-12-17T16:52:31.763Z,66.40
2023-12-17T16:54:59.191Z,66.38
2023-12-17T16:57:27.995Z,66.43
2023-12-17T16:59:55.508Z,66.37
2023-12-17T17:02:22.955Z,66.33
2023-12-17T17:04:50.861Z,66.44
2023-12-17T17:07:19.131Z,66.55
2023-12-17T17:09:46.862Z,66.69
2023-12-17T17:12:14.323Z,66.71
2023-12-17T17:14:44.423Z,66.94
2023-12-17T17:17:12.350Z,66.75
2023-12-17T17:19:39.872Z,66.75
2023-12-17T17:22:07.642Z,66.78
2023-12-17T17:24:35.227Z,66.69
2023-12-17T17:27:04.334Z,66.98
2023-12-17T17:29:31.763Z,66.75
2023-12-17T17:32:00.500Z,66.83
2023-12-17T17:34:28.178Z,66.77
2023-12-17T17:36:55.718Z,66.90
2023-12-17T17:39:23.162Z,66.78
2023-12-17T17:41:51.324Z,66.76
2023-12-17T17:44:19.263Z,66.93
2023-12-17T17:46:46.843Z,66.95
2023-12-17T17:49:21.822Z,67.01
2023-12-17T17:51:49.489Z,66.99
2023-12-17T17:54:16.976Z,66.74
2023-12-17T17:56:44.506Z,66.68
2023-12-17T17:59:11.927Z,66.87
2023-12-17T18:01:39.375Z,66.66
2023-12-17T18:04:06.948Z,66.68
2023-12-17T18:06:35.836Z,66.77
2023-12-17T18:09:03.318Z,66.44
2023-12-17T18:11:30.756Z,66.38
2023-12-17T18:13:59.451Z,66.71
2023-12-17T18:16:26.884Z,66.78
2023-12-17T18:18:54.423Z,66.74
2023-12-17T18:21:23.444Z,66.83
2023-12-17T18:23:52.487Z,67.08
2023-12-17T18:26:23.108Z,66.78
2023-12-17T18:28:50.571Z,66.74
2023-12-17T18:31:18.173Z,66.40
2023-12-17T18:33:47.565Z,66.56
2023-12-17T18:36:15.063Z,66.31
2023-12-17T18:38:46.065Z,66.15
2023-12-17T18:41:15.206Z,65.95
2023-12-17T18:43:42.707Z,65.67
2023-12-17T18:46:14.153Z,65.91
2023-12-17T18:48:41.800Z,66.22
2023-12-17T18:51:09.385Z,66.45
2023-12-17T18:53:37.138Z,65.79
2023-12-17T18:56:05.015Z,66.25
2023-12-17T18:58:33.969Z,66.77
2023-12-17T19:01:01.468Z,66.55
2023-12-17T19:03:29.039Z,66.68
2023-12-17T19:05:56.538Z,66.79
2023-12-17T19:08:23.996Z,67.02
2023-12-17T19:10:51.447Z,67.03
2023-12-17T19:13:18.875Z,66.96
2023-12-17T19:15:47.770Z,67.17
2023-12-17T19:18:15.968Z,67.35
2023-12-17T19:20:43.620Z,67.39
2023-12-17T19:23:11.087Z,67.31
2023-12-17T19:25:38.579Z,67.28
2023-12-17T19:28:06.491Z,67.36
2023-12-17T19:30:34.040Z,67.50
2023-12-17T19:33:08.234Z,67.43
2023-12-17T19:35:37.044Z,67.63
2023-12-17T19:38:04.663Z,67.50
2023-12-17T19:40:32.095Z,67.61
2023-12-17T19:43:00.058Z,67.57
2023-12-17T19:45:27.568Z,67.37
2023-12-17T19:47:55.218Z,67.46
2023-12-17T19:50:24.447Z,67.45
2023-12-17T19:52:51.852Z,67.49
2023-12-17T19:55:19.268Z,67.57
2023-12-17T19:57:46.788Z,67.64
2023-12-17T20:00:15.416Z,67.58
2023-12-17T20:02:43.128Z,67.59
2023-12-17T20:05:11.043Z,67.57
2023-12-17T20:07:40.387Z,67.27
2023-12-17T20:12:36.088Z,67.56
2023-12-17T20:15:05.345Z,67.43
2023-12-17T20:17:32.922Z,67.36
2023-12-17T20:20:00.509Z,67.50
2023-12-17T20:22:28.076Z,67.29
2023-12-17T20:24:58.800Z,67.46
2023-12-17T20:27:26.288Z,67.53
2023-12-17T20:29:55.229Z,67.58
2023-12-17T20:32:22.660Z,67.51
2023-12-17T20:34:50.114Z,67.41
2023-12-17T20:37:17.628Z,67.51
2023-12-17T20:39:45.305Z,67.36
2023-12-17T20:42:14.043Z,67.41
2023-12-17T20:44:41.496Z,67.64
2023-12-17T20:47:09.033Z,67.51
2023-12-17T20:49:36.494Z,67.69
2023-12-17T20:52:04.019Z,67.60
2023-12-17T20:54:31.553Z,67.46
2023-12-17T20:56:59.047Z,67.32
2023-12-17T20:59:27.795Z,67.38
2023-12-17T21:01:55.225Z,67.44
2023-12-17T21:04:22.747Z,67.49
2023-12-17T21:06:50.544Z,67.48
2023-12-17T21:09:17.976Z,67.38
2023-12-17T21:11:45.867Z,67.27
2023-12-17T21:14:13.302Z,67.44
2023-12-17T21:16:42.042Z,67.35
2023-12-17T21:19:09.752Z,67.36
2023-12-17T21:21:37.445Z,67.47
2023-12-17T21:24:06.039Z,67.26
2023-12-17T21:26:35.573Z,67.04
2023-12-17T21:29:03.019Z,66.81
2023-12-17T21:31:30.600Z,66.95
2023-12-17T21:33:59.669Z,66.98
2023-12-17T21:36:27.244Z,67.13
2023-12-17T21:38:54.839Z,67.11
2023-12-17T21:41:23.028Z,67.16
2023-12-17T21:43:50.506Z,67.14
2023-12-17T21:46:17.932Z,67.22
2023-12-17T21:48:45.748Z,66.96
2023-12-17T21:51:14.578Z,67.04
2023-12-17T21:53:41.997Z,67.24
2023-12-17T21:56:09.942Z,67.12
2023-12-17T21:58:37.474Z,67.15
2023-12-17T22:01:05.349Z,67.05
2023-12-17T22:03:32.922Z,67.06
2023-12-17T22:06:00.474Z,67.26
2023-12-17T22:08:29.893Z,67.01
2023-12-17T22:10:57.375Z,66.94
2023-12-17T22:13:24.792Z,67.11
2023-12-17T22:15:52.244Z,67.18
2023-12-17T22:18:19.774Z,67.26
2023-12-17T22:20:47.255Z,67.24
2023-12-17T22:23:14.692Z,67.19
2023-12-17T22:25:43.463Z,67.09
2023-12-17T22:28:10.960Z,67.28
2023-12-17T22:30:38.562Z,67.24
2023-12-17T22:33:06.442Z,67.25
2023-12-17T22:35:33.889Z,67.30
2023-12-17T22:38:01.349Z,67.23
2023-12-17T22:40:28.793Z,67.07
2023-12-17T22:42:57.550Z,67.09
2023-12-17T22:45:25.016Z,67.27
2023-12-17T22:47:52.545Z,67.32
2023-12-17T22:50:20.016Z,67.26
2023-12-17T22:52:47.426Z,67.21
2023-12-17T22:55:14.836Z,67.09
2023-12-17T22:57:42.522Z,67.37
2023-12-17T23:00:14.151Z,67.16
2023-12-17T23:02:41.605Z,67.31
2023-12-17T23:05:09.221Z,67.28
2023-12-17T23:07:37.016Z,66.96
2023-12-17T23:10:04.832Z,67.14
2023-12-17T23:12:32.288Z,67.21
2023-12-17T23:14:59.741Z,67.28
2023-12-17T23:17:28.506Z,67.08
2023-12-17T23:19:56.002Z,66.94
2023-12-17T23:22:23.415Z,67.19
2023-12-17T23:24:50.833Z,67.19
2023-12-17T23:27:18.277Z,67.31
2023-12-17T23:29:45.738Z,67.14
2023-12-17T23:32:19.175Z,67.20
2023-12-17T23:34:53.339Z,67.16
2023-12-17T23:37:20.771Z,67.00
2023-12-17T23:39:48.198Z,67.09
2023-12-17T23:42:15.671Z,67.01
2023-12-17T23:44:43.140Z,67.08
2023-12-17T23:47:10.559Z,67.20
2023-12-17T23:49:38.008Z,67.22
2023-12-17T23:52:06.919Z,67.10
2023-12-17T23:54:34.377Z,66.86
2023-12-17T23:57:01.912Z,67.03
2023-12-17T23:59:29.345Z,66.98
